Gold Beach, Oregon
Current Conditions -  °F | °C
As of 7:56 PM on Friday 24 Oct 2014 (Local Time) from KBOK Reporting Station
Overcast Overcast  
Wind Chill: 62°   Ceiling: 4000
Heat Index: 62°   Visibility: 9mi
Dew Point: 55°   Wind: 7mph
Humidity: 78%   Direction: 140°SE
Pressure: 29.71"   Gusts: NA
Location:  42.41°N, 124.42°W
Report Text: KBOK 250256Z AUTO 14006KT 9SM OVC040 17/13 A2971 RMK AO2 55009 T01660127 SLP061
Loading
Personal Weather Stations






























Interactive Weather Map
Tropical Storm Tracking
New forecast layout! Learn more

10-Day Weather Forecast

Advertisements
Track Severe Weather on mobile